createdAt,value
2022-11-26T00:00:01.268Z,5.10
2022-11-26T00:02:33.317Z,5.70
2022-11-26T00:05:02.651Z,5.80
2022-11-26T00:07:35.117Z,6.20
2022-11-26T00:10:28.678Z,5.40
2022-11-26T00:12:58.929Z,4.40
2022-11-26T00:15:32.009Z,5.00
2022-11-26T00:18:01.234Z,5.70
2022-11-26T00:20:33.278Z,6.20
2022-11-26T00:23:05.380Z,4.70
2022-11-26T00:25:51.901Z,5.90
2022-11-26T00:28:35.274Z,5.30
2022-11-26T00:31:15.791Z,4.80
2022-11-26T00:33:45.416Z,4.90
2022-11-26T00:36:17.431Z,4.50
2022-11-26T00:38:51.041Z,4.70
2022-11-26T00:41:25.289Z,5.10
2022-11-26T00:43:54.613Z,5.90
2022-11-26T00:46:24.810Z,5.30
2022-11-26T00:48:54.265Z,5.30
2022-11-26T00:51:28.729Z,4.20
2022-11-26T00:54:03.879Z,5.50
2022-11-26T00:56:38.112Z,5.10
2022-11-26T00:59:08.263Z,5.50
2022-11-26T01:01:38.710Z,5.70
2022-11-26T01:04:08.522Z,5.20
2022-11-26T01:06:47.941Z,7.50
2022-11-26T01:09:23.138Z,5.80
2022-11-26T01:11:54.433Z,6.10
2022-11-26T01:14:25.210Z,5.40
2022-11-26T01:16:58.279Z,5.50
2022-11-26T01:19:27.752Z,5.80
2022-11-26T01:21:57.059Z,5.40
2022-11-26T01:24:26.087Z,5.40
2022-11-26T01:26:55.435Z,6.10
2022-11-26T01:29:24.527Z,6.90
2022-11-26T01:31:53.766Z,6.30
2022-11-26T01:34:23.915Z,5.50
2022-11-26T01:36:53.184Z,6.00
2022-11-26T01:39:25.121Z,4.80
2022-11-26T01:42:34.901Z,4.80
2022-11-26T01:45:04.779Z,4.60
2022-11-26T01:47:35.052Z,6.00
2022-11-26T01:50:37.785Z,5.50
2022-11-26T01:53:35.206Z,5.70
2022-11-26T01:56:54.509Z,5.40
2022-11-26T01:59:37.875Z,5.50
2022-11-26T02:02:07.835Z,5.00
2022-11-26T02:05:11.182Z,5.60
2022-11-26T02:07:41.709Z,4.70
2022-11-26T02:10:11.778Z,5.00
2022-11-26T02:12:42.290Z,4.00
2022-11-26T02:15:13.781Z,4.10
2022-11-26T02:17:55.904Z,4.00
2022-11-26T02:20:54.726Z,5.10
2022-11-26T02:23:54.980Z,5.20
2022-11-26T02:27:08.421Z,4.10
2022-11-26T02:30:13.422Z,5.70
2022-11-26T02:32:59.573Z,4.80
2022-11-26T02:35:46.626Z,4.40
2022-11-26T02:38:39.399Z,4.40
2022-11-26T02:41:09.078Z,5.40
2022-11-26T02:43:40.792Z,5.10
2022-11-26T02:46:19.782Z,6.00
2022-11-26T02:48:54.468Z,4.80
2022-11-26T02:51:34.600Z,5.30
2022-11-26T02:54:05.538Z,5.20
2022-11-26T02:56:36.396Z,5.30
2022-11-26T02:59:06.838Z,4.60
2022-11-26T03:02:19.630Z,3.80
2022-11-26T03:04:53.599Z,5.30
2022-11-26T03:07:24.447Z,5.00
2022-11-26T03:09:57.598Z,5.40
2022-11-26T03:12:28.478Z,4.30
2022-11-26T03:14:58.268Z,4.40
2022-11-26T03:17:27.508Z,4.30
2022-11-26T03:19:56.845Z,4.70
2022-11-26T03:22:26.544Z,5.30
2022-11-26T03:24:55.658Z,4.70
2022-11-26T03:27:25.348Z,5.80
2022-11-26T03:29:54.637Z,4.90
2022-11-26T03:32:24.177Z,4.90
2022-11-26T03:34:53.678Z,5.40
2022-11-26T03:37:23.358Z,5.40
2022-11-26T03:39:52.781Z,5.80
2022-11-26T03:42:25.091Z,5.50
2022-11-26T03:44:55.235Z,4.10
2022-11-26T03:47:24.566Z,4.90
2022-11-26T03:49:54.075Z,4.60
2022-11-26T03:52:23.531Z,4.90
2022-11-26T03:54:52.848Z,4.90
2022-11-26T03:57:23.341Z,5.00
2022-11-26T03:59:52.482Z,5.20
2022-11-26T04:02:21.509Z,4.40
2022-11-26T04:04:50.680Z,4.70
2022-11-26T04:07:19.965Z,5.90
2022-11-26T04:09:49.556Z,5.90
2022-11-26T04:12:18.899Z,5.40
2022-11-26T04:14:48.289Z,4.40
2022-11-26T04:17:17.576Z,4.80
2022-11-26T04:19:46.731Z,4.00
2022-11-26T04:22:15.957Z,5.30
2022-11-26T04:24:45.480Z,6.60
2022-11-26T04:27:14.990Z,5.80
2022-11-26T04:29:44.650Z,5.70
2022-11-26T04:32:14.018Z,5.50
2022-11-26T04:34:43.176Z,4.60
2022-11-26T04:37:12.564Z,4.20
2022-11-26T04:39:41.957Z,4.20
2022-11-26T04:42:11.339Z,3.60
2022-11-26T04:44:40.634Z,5.60
2022-11-26T04:47:10.180Z,4.10
2022-11-26T04:49:39.512Z,4.20
2022-11-26T04:52:08.869Z,4.30
2022-11-26T04:54:38.593Z,5.80
2022-11-26T04:57:07.975Z,4.10
2022-11-26T04:59:37.280Z,4.80
2022-11-26T05:02:06.549Z,5.30
2022-11-26T05:04:36.134Z,5.00
2022-11-26T05:07:06.875Z,4.70
2022-11-26T05:09:36.354Z,4.80
2022-11-26T05:12:06.091Z,4.60
2022-11-26T05:14:35.966Z,4.30
2022-11-26T05:17:05.328Z,4.70
2022-11-26T05:19:35.245Z,5.60
2022-11-26T05:22:04.691Z,4.70
2022-11-26T05:24:34.104Z,5.60
2022-11-26T05:27:03.812Z,4.80
2022-11-26T05:29:34.004Z,4.90
2022-11-26T05:32:03.335Z,4.50
2022-11-26T05:34:32.986Z,4.10
2022-11-26T05:37:02.353Z,4.90
2022-11-26T05:39:31.851Z,4.50
2022-11-26T05:42:04.851Z,4.30
2022-11-26T05:44:37.426Z,4.90
2022-11-26T05:47:07.351Z,3.80
2022-11-26T05:49:36.568Z,5.20
2022-11-26T05:52:05.997Z,5.40
2022-11-26T05:54:35.134Z,5.20
2022-11-26T05:57:04.511Z,4.80
2022-11-26T05:59:33.645Z,4.60
2022-11-26T06:02:02.919Z,4.70
2022-11-26T06:04:32.302Z,4.70
2022-11-26T06:07:01.485Z,4.20
2022-11-26T06:09:30.824Z,4.80
2022-11-26T06:12:00.840Z,3.90
2022-11-26T06:14:30.458Z,3.70
2022-11-26T06:17:00.066Z,4.20
2022-11-26T06:19:29.425Z,4.20
2022-11-26T06:21:58.542Z,4.00
2022-11-26T06:24:27.927Z,4.10
2022-11-26T06:26:57.277Z,3.60
2022-11-26T06:29:28.139Z,3.30
2022-11-26T06:31:58.156Z,3.40
2022-11-26T06:34:28.016Z,3.70
2022-11-26T06:36:57.323Z,3.00
2022-11-26T06:39:26.611Z,3.40
2022-11-26T06:41:55.976Z,3.60
2022-11-26T06:44:25.305Z,3.30
2022-11-26T06:46:54.290Z,3.30
2022-11-26T06:49:23.702Z,3.50
2022-11-26T06:51:52.761Z,3.00
2022-11-26T06:54:22.414Z,4.10
2022-11-26T06:56:51.408Z,4.20
2022-11-26T06:59:20.468Z,3.70
2022-11-26T07:01:50.094Z,3.50
2022-11-26T07:04:19.680Z,3.40
2022-11-26T07:06:48.683Z,3.20
2022-11-26T07:09:17.915Z,3.60
2022-11-26T07:11:47.594Z,3.60
2022-11-26T07:14:16.984Z,3.50
2022-11-26T07:16:46.258Z,2.80
2022-11-26T07:19:16.746Z,3.40
2022-11-26T07:21:45.899Z,4.10
2022-11-26T07:24:15.215Z,3.70
2022-11-26T07:26:45.227Z,4.00
2022-11-26T07:29:14.799Z,4.00
2022-11-26T07:31:45.384Z,3.70
2022-11-26T07:34:14.793Z,3.80
2022-11-26T07:36:44.592Z,3.20
2022-11-26T07:39:14.479Z,4.00
2022-11-26T07:41:43.806Z,4.00
2022-11-26T07:44:16.958Z,3.80
2022-11-26T07:46:46.099Z,3.90
2022-11-26T07:49:18.145Z,3.30
2022-11-26T07:51:47.464Z,4.20
2022-11-26T07:54:16.827Z,4.20
2022-11-26T07:56:46.227Z,4.30
2022-11-26T07:59:15.851Z,3.70
2022-11-26T08:01:45.279Z,3.40
2022-11-26T08:04:14.660Z,3.50
2022-11-26T08:06:47.022Z,3.40
2022-11-26T08:09:16.306Z,3.50
2022-11-26T08:11:45.436Z,3.30
2022-11-26T08:14:15.567Z,3.60
2022-11-26T08:16:45.450Z,3.20
2022-11-26T08:19:16.170Z,4.00
2022-11-26T08:21:45.600Z,3.60
2022-11-26T08:24:21.504Z,3.40
2022-11-26T08:26:50.965Z,3.10
2022-11-26T08:29:20.109Z,3.20
2022-11-26T08:31:50.250Z,2.90
2022-11-26T08:34:19.941Z,3.20
2022-11-26T08:36:49.435Z,3.80
2022-11-26T08:39:20.340Z,3.00
2022-11-26T08:41:52.425Z,2.80
2022-11-26T08:44:22.918Z,2.90
2022-11-26T08:46:52.300Z,3.40
2022-11-26T08:49:21.878Z,3.40
2022-11-26T08:51:56.378Z,3.40
2022-11-26T08:54:26.423Z,3.90
2022-11-26T08:56:56.954Z,3.80
2022-11-26T08:59:26.820Z,3.70
2022-11-26T09:01:56.354Z,3.80
2022-11-26T09:04:26.083Z,3.70
2022-11-26T09:06:55.304Z,3.00
2022-11-26T09:09:24.694Z,3.40
2022-11-26T09:11:59.734Z,3.80
2022-11-26T09:14:36.117Z,3.80
2022-11-26T09:17:06.207Z,3.20
2022-11-26T09:19:35.797Z,3.90
2022-11-26T09:22:05.457Z,3.70
2022-11-26T09:24:34.808Z,3.40
2022-11-26T09:27:07.890Z,3.50
2022-11-26T09:29:37.601Z,4.60
2022-11-26T09:32:23.374Z,2.70
2022-11-26T09:34:54.934Z,2.90
2022-11-26T09:37:24.192Z,2.70
2022-11-26T09:39:55.676Z,3.20
2022-11-26T09:43:02.411Z,3.40
2022-11-26T09:45:48.801Z,2.80
2022-11-26T09:48:26.632Z,2.90
2022-11-26T09:51:13.331Z,4.10
2022-11-26T09:53:51.582Z,3.20
2022-11-26T09:56:27.354Z,2.80
2022-11-26T09:59:08.486Z,2.90
2022-11-26T10:01:37.934Z,3.70
2022-11-26T10:04:10.961Z,3.80
2022-11-26T10:06:58.401Z,3.20
2022-11-26T10:10:13.849Z,2.70
2022-11-26T10:13:18.588Z,3.00
2022-11-26T10:16:10.015Z,3.30
2022-11-26T10:19:04.754Z,2.80
2022-11-26T10:22:02.546Z,4.10
2022-11-26T10:24:42.991Z,2.70
2022-11-26T10:27:26.068Z,3.30
2022-11-26T10:30:17.795Z,3.00
2022-11-26T10:32:50.406Z,3.00
2022-11-26T10:35:28.497Z,2.80
2022-11-26T10:38:00.402Z,3.00
2022-11-26T10:40:33.551Z,3.20
2022-11-26T10:43:11.109Z,2.90
2022-11-26T10:45:52.296Z,2.40
2022-11-26T10:48:34.376Z,3.20
2022-11-26T10:51:38.894Z,3.30
2022-11-26T10:54:42.339Z,2.70
2022-11-26T10:57:11.548Z,3.40
2022-11-26T10:59:54.835Z,2.80
2022-11-26T11:02:42.247Z,2.90
2022-11-26T11:05:12.315Z,2.40
2022-11-26T11:07:45.326Z,3.00
2022-11-26T11:10:16.047Z,3.40
2022-11-26T11:12:52.153Z,3.40
2022-11-26T11:15:31.489Z,3.00
2022-11-26T11:18:05.870Z,3.80
2022-11-26T11:20:44.216Z,3.20
2022-11-26T11:23:13.675Z,2.90
2022-11-26T11:25:49.501Z,3.80
2022-11-26T11:28:26.220Z,3.30
2022-11-26T11:31:26.985Z,2.70
2022-11-26T11:34:28.281Z,2.80
2022-11-26T11:37:25.544Z,3.50
2022-11-26T11:40:19.279Z,3.30
2022-11-26T11:43:06.669Z,4.60
2022-11-26T11:46:02.891Z,3.70
2022-11-26T11:49:05.437Z,2.80
2022-11-26T11:51:58.386Z,3.80
2022-11-26T11:54:48.341Z,2.90
2022-11-26T11:57:45.284Z,3.60
2022-11-26T12:00:35.219Z,3.80
2022-11-26T12:03:34.405Z,3.70
2022-11-26T12:07:03.297Z,3.00
2022-11-26T12:10:24.378Z,2.90
2022-11-26T12:13:00.102Z,3.70
2022-11-26T12:15:44.181Z,3.80
2022-11-26T12:19:03.518Z,2.80
2022-11-26T12:22:32.816Z,3.20
2022-11-26T12:25:36.851Z,3.70
2022-11-26T12:28:27.078Z,3.40
2022-11-26T12:31:38.166Z,3.20
2022-11-26T12:34:40.986Z,3.20
2022-11-26T12:37:33.037Z,3.00
2022-11-26T12:40:30.747Z,3.30
2022-11-26T12:43:31.341Z,3.40
2022-11-26T12:46:08.823Z,3.80
2022-11-26T12:48:50.067Z,3.50
2022-11-26T12:51:59.480Z,4.10
2022-11-26T12:55:04.598Z,3.30
2022-11-26T12:57:50.174Z,3.30
2022-11-26T13:00:38.399Z,3.00
2022-11-26T13:03:15.049Z,4.50
2022-11-26T13:06:08.465Z,3.20
2022-11-26T13:09:20.613Z,3.90
2022-11-26T13:12:16.838Z,3.60
2022-11-26T13:15:21.566Z,3.80
2022-11-26T13:17:52.662Z,2.90
2022-11-26T13:20:53.249Z,3.20
2022-11-26T13:24:01.326Z,3.80
2022-11-26T13:26:58.464Z,3.70
2022-11-26T13:30:06.468Z,4.10
2022-11-26T13:32:53.995Z,4.10
2022-11-26T13:36:12.733Z,3.10
2022-11-26T13:38:56.153Z,3.30
2022-11-26T13:42:03.072Z,3.70
2022-11-26T13:44:57.202Z,5.60
2022-11-26T13:47:43.521Z,3.70
2022-11-26T13:50:24.492Z,4.90
2022-11-26T13:53:37.810Z,5.30
2022-11-26T13:56:12.096Z,4.30
2022-11-26T13:58:56.451Z,3.60
2022-11-26T14:01:43.295Z,3.40
2022-11-26T14:04:37.180Z,4.20
2022-11-26T14:07:06.893Z,4.10
2022-11-26T14:09:47.756Z,3.80
2022-11-26T14:12:22.236Z,4.40
2022-11-26T14:14:53.223Z,3.50
2022-11-26T14:17:31.100Z,3.90
2022-11-26T14:20:02.850Z,5.80
2022-11-26T14:22:36.298Z,3.20
2022-11-26T14:25:12.668Z,3.90
2022-11-26T14:27:52.686Z,3.80
2022-11-26T14:30:28.193Z,3.70
2022-11-26T14:33:25.640Z,4.40
2022-11-26T14:35:59.589Z,3.70
2022-11-26T14:38:32.669Z,3.60
2022-11-26T14:41:03.483Z,4.40
2022-11-26T14:43:33.339Z,3.60
2022-11-26T14:46:19.031Z,3.70
2022-11-26T14:48:52.621Z,3.30
2022-11-26T14:51:27.490Z,4.10
2022-11-26T14:54:02.106Z,4.00
2022-11-26T14:56:32.313Z,4.10
2022-11-26T14:59:03.973Z,6.50
2022-11-26T15:01:34.822Z,4.50
2022-11-26T15:04:07.974Z,4.00
2022-11-26T15:06:44.067Z,4.60
2022-11-26T15:09:17.902Z,6.70
2022-11-26T15:12:05.370Z,5.90
2022-11-26T15:15:03.605Z,4.90
2022-11-26T15:17:35.155Z,4.60
2022-11-26T15:20:09.692Z,4.70
2022-11-26T15:22:45.447Z,3.60
2022-11-26T15:25:41.503Z,4.10
2022-11-26T15:28:24.672Z,4.10
2022-11-26T15:31:03.672Z,3.70
2022-11-26T15:33:38.832Z,4.40
2022-11-26T15:36:17.199Z,3.90
2022-11-26T15:39:09.949Z,3.30
2022-11-26T15:41:43.178Z,3.20
2022-11-26T15:44:26.559Z,3.40
2022-11-26T15:46:59.508Z,4.70
2022-11-26T15:49:41.616Z,3.70
2022-11-26T15:52:15.710Z,4.20
2022-11-26T15:55:16.819Z,4.30
2022-11-26T15:57:52.269Z,3.60
2022-11-26T16:00:40.770Z,4.00
2022-11-26T16:03:43.901Z,4.40
2022-11-26T16:06:39.055Z,3.60
2022-11-26T16:09:18.028Z,4.10
2022-11-26T16:12:25.594Z,4.30
2022-11-26T16:14:54.737Z,3.30
2022-11-26T16:17:24.074Z,4.70
2022-11-26T16:19:58.641Z,3.70
2022-11-26T16:22:34.794Z,3.60
2022-11-26T16:25:21.053Z,3.30
2022-11-26T16:28:11.908Z,3.10
2022-11-26T16:30:44.650Z,3.70
2022-11-26T16:33:13.980Z,3.90
2022-11-26T16:35:46.247Z,6.40
2022-11-26T16:38:27.791Z,4.10
2022-11-26T16:40:57.062Z,4.00
2022-11-26T16:43:29.473Z,5.20
2022-11-26T16:46:00.495Z,3.80
2022-11-26T16:48:30.040Z,4.10
2022-11-26T16:50:59.415Z,3.30
2022-11-26T16:53:28.510Z,3.70
2022-11-26T16:55:59.224Z,4.40
2022-11-26T16:58:39.108Z,4.30
2022-11-26T17:01:08.430Z,3.60
2022-11-26T17:03:37.859Z,3.60
2022-11-26T17:06:39.716Z,4.10
2022-11-26T17:09:19.109Z,3.70
2022-11-26T17:11:48.724Z,3.70
2022-11-26T17:14:17.792Z,3.80
2022-11-26T17:16:47.079Z,4.50
2022-11-26T17:19:17.607Z,3.90
2022-11-26T17:21:46.741Z,4.50
2022-11-26T17:24:20.709Z,4.80
2022-11-26T17:26:54.004Z,3.80
2022-11-26T17:29:23.200Z,3.90
2022-11-26T17:31:52.561Z,4.90
2022-11-26T17:34:22.162Z,4.50
2022-11-26T17:36:51.437Z,4.50
2022-11-26T17:39:20.583Z,4.60
2022-11-26T17:41:50.166Z,4.60
2022-11-26T17:44:19.639Z,4.60
2022-11-26T17:47:15.217Z,4.50
2022-11-26T17:49:39.121Z,4.50
2022-11-26T17:52:09.090Z,4.50
2022-11-26T17:54:38.654Z,4.60
2022-11-26T17:57:08.432Z,4.00
2022-11-26T17:59:38.781Z,4.40
2022-11-26T18:02:09.706Z,4.30
2022-11-26T18:04:39.496Z,4.70
2022-11-26T18:07:20.931Z,3.80
2022-11-26T18:09:50.189Z,4.20
2022-11-26T18:12:27.081Z,3.80
2022-11-26T18:14:57.908Z,4.10
2022-11-26T18:17:28.064Z,3.30
2022-11-26T18:19:57.822Z,4.10
2022-11-26T18:22:29.484Z,5.60
2022-11-26T18:24:59.452Z,6.40
2022-11-26T18:27:32.231Z,5.00
2022-11-26T18:30:01.395Z,4.60
2022-11-26T18:32:30.670Z,4.70
2022-11-26T18:34:59.801Z,5.00
2022-11-26T18:37:29.354Z,5.40
2022-11-26T18:39:58.517Z,5.50
2022-11-26T18:42:43.084Z,5.30
2022-11-26T18:45:16.775Z,5.40
2022-11-26T18:47:46.217Z,5.70
2022-11-26T18:50:15.540Z,4.30
2022-11-26T18:52:44.871Z,4.50
2022-11-26T18:55:16.735Z,4.40
2022-11-26T18:57:45.809Z,4.00
2022-11-26T19:00:16.898Z,4.40
2022-11-26T19:02:46.495Z,5.00
2022-11-26T19:05:16.253Z,3.80
2022-11-26T19:07:45.833Z,5.20
2022-11-26T19:10:15.065Z,4.30
2022-11-26T19:12:44.330Z,4.50
2022-11-26T19:15:13.791Z,3.90
2022-11-26T19:17:42.939Z,3.80
2022-11-26T19:20:14.844Z,4.60
2022-11-26T19:22:45.806Z,4.60
2022-11-26T19:25:15.613Z,4.20
2022-11-26T19:27:45.206Z,4.10
2022-11-26T19:30:19.340Z,4.00
2022-11-26T19:32:48.605Z,4.20
2022-11-26T19:35:18.011Z,3.90
2022-11-26T19:37:47.294Z,4.50
2022-11-26T19:40:16.708Z,4.00
2022-11-26T19:42:45.838Z,4.40
2022-11-26T19:45:14.879Z,4.50
2022-11-26T19:47:43.945Z,4.40
2022-11-26T19:50:13.364Z,5.10
2022-11-26T19:52:46.562Z,4.10
2022-11-26T19:55:17.482Z,4.30
2022-11-26T19:57:46.797Z,3.90
2022-11-26T20:00:16.593Z,4.70
2022-11-26T20:02:45.966Z,3.60
2022-11-26T20:05:15.671Z,5.20
2022-11-26T20:07:46.367Z,4.20
2022-11-26T20:10:16.690Z,5.00
2022-11-26T20:12:46.073Z,4.60
2022-11-26T20:15:15.378Z,3.70
2022-11-26T20:17:44.635Z,5.00
2022-11-26T20:20:14.431Z,4.10
2022-11-26T20:22:44.783Z,3.60
2022-11-26T20:25:16.714Z,3.70
2022-11-26T20:27:46.495Z,3.90
2022-11-26T20:30:15.961Z,3.80
2022-11-26T20:32:45.358Z,4.80
2022-11-26T20:35:14.740Z,4.10
2022-11-26T20:37:44.495Z,4.00
2022-11-26T20:40:13.865Z,4.20
2022-11-26T20:42:46.601Z,4.30
2022-11-26T20:45:17.239Z,4.00
2022-11-26T20:47:46.866Z,4.30
2022-11-26T20:50:16.808Z,5.00
2022-11-26T20:52:46.315Z,4.00
2022-11-26T20:55:15.584Z,4.50
2022-11-26T20:57:44.957Z,4.30
2022-11-26T21:00:19.119Z,4.80
2022-11-26T21:02:50.150Z,4.40
2022-11-26T21:05:19.771Z,4.80
2022-11-26T21:07:48.966Z,4.60
2022-11-26T21:10:19.279Z,4.80
2022-11-26T21:12:48.461Z,5.20
2022-11-26T21:15:18.078Z,3.80
2022-11-26T21:17:47.620Z,4.10
2022-11-26T21:20:17.979Z,4.90
2022-11-26T21:22:47.278Z,6.10
2022-11-26T21:25:16.798Z,5.20
2022-11-26T21:27:46.276Z,4.50
2022-11-26T21:30:15.979Z,4.50
2022-11-26T21:32:45.096Z,4.00
2022-11-26T21:35:15.339Z,4.00
2022-11-26T21:37:44.555Z,4.50
2022-11-26T21:40:14.419Z,3.60
2022-11-26T21:42:43.689Z,4.50
2022-11-26T21:45:13.360Z,5.00
2022-11-26T21:47:42.602Z,4.60
2022-11-26T21:50:12.962Z,4.50
2022-11-26T21:52:42.211Z,4.60
2022-11-26T21:55:11.751Z,4.00
2022-11-26T21:57:41.272Z,4.40
2022-11-26T22:00:11.666Z,3.40
2022-11-26T22:02:40.963Z,4.10
2022-11-26T22:05:10.706Z,5.10
2022-11-26T22:07:40.082Z,4.40
2022-11-26T22:10:10.462Z,4.80
2022-11-26T22:12:39.691Z,4.20
2022-11-26T22:15:09.712Z,5.30
2022-11-26T22:17:39.105Z,4.50
2022-11-26T22:20:09.791Z,4.40
2022-11-26T22:22:39.189Z,4.20
2022-11-26T22:25:08.886Z,4.20
2022-11-26T22:27:38.452Z,4.20
2022-11-26T22:30:12.696Z,4.00
2022-11-26T22:32:41.980Z,4.50
2022-11-26T22:35:11.016Z,4.60
2022-11-26T22:37:40.527Z,4.30
2022-11-26T22:40:10.986Z,4.10
2022-11-26T22:42:42.341Z,4.00
2022-11-26T22:45:12.793Z,3.80
2022-11-26T22:47:42.037Z,4.70
2022-11-26T22:50:12.478Z,7.10
2022-11-26T22:52:43.644Z,4.60
2022-11-26T22:55:13.436Z,4.40
2022-11-26T22:57:43.237Z,3.70
2022-11-26T23:00:36.400Z,4.40
2022-11-26T23:03:05.710Z,4.60
2022-11-26T23:05:39.903Z,4.50
2022-11-26T23:08:09.701Z,5.40
2022-11-26T23:10:39.379Z,4.50
2022-11-26T23:13:11.587Z,3.80
2022-11-26T23:15:47.112Z,4.30
2022-11-26T23:18:18.286Z,4.50
2022-11-26T23:20:47.577Z,4.30
2022-11-26T23:23:16.766Z,4.60
2022-11-26T23:25:46.274Z,4.00
2022-11-26T23:28:15.407Z,4.60
2022-11-26T23:30:46.665Z,5.10
2022-11-26T23:33:16.215Z,5.40
2022-11-26T23:35:46.097Z,5.00
2022-11-26T23:38:15.320Z,4.90
2022-11-26T23:40:44.449Z,5.90
2022-11-26T23:43:13.928Z,4.90
2022-11-26T23:45:43.341Z,4.40
2022-11-26T23:48:12.567Z,4.60
2022-11-26T23:50:42.369Z,4.30
2022-11-26T23:53:11.869Z,3.70
2022-11-26T23:55:41.202Z,4.50
2022-11-26T23:58:10.419Z,4.40
